sensor_id;sensor_type;location;lat;lon;timestamp;P1;durP1;ratioP1;P2;durP2;ratioP2
1613;SDS011;800;48.824;9.346;2022-09-24T00:03:39;7.87;;;6.83;;
1613;SDS011;800;48.824;9.346;2022-09-24T00:06:05;9.20;;;8.00;;
1613;SDS011;800;48.824;9.346;2022-09-24T00:08:32;9.93;;;7.50;;
1613;SDS011;800;48.824;9.346;2022-09-24T00:11:02;8.50;;;7.70;;
1613;SDS011;800;48.824;9.346;2022-09-24T00:13:30;8.60;;;7.50;;
1613;SDS011;800;48.824;9.346;2022-09-24T00:15:56;8.00;;;7.20;;
1613;SDS011;800;48.824;9.346;2022-09-24T00:18:27;7.63;;;6.93;;
1613;SDS011;800;48.824;9.346;2022-09-24T00:20:53;8.90;;;7.03;;
1613;SDS011;800;48.824;9.346;2022-09-24T00:23:18;7.73;;;7.03;;
1613;SDS011;800;48.824;9.346;2022-09-24T00:25:45;8.30;;;7.57;;
1613;SDS011;800;48.824;9.346;2022-09-24T00:28:30;8.37;;;7.57;;
1613;SDS011;800;48.824;9.346;2022-09-24T00:30:56;8.30;;;7.60;;
1613;SDS011;800;48.824;9.346;2022-09-24T00:33:24;9.00;;;8.03;;
1613;SDS011;800;48.824;9.346;2022-09-24T00:35:50;7.70;;;7.00;;
1613;SDS011;800;48.824;9.346;2022-09-24T00:38:16;9.07;;;7.60;;
1613;SDS011;800;48.824;9.346;2022-09-24T00:40:43;9.27;;;8.07;;
1613;SDS011;800;48.824;9.346;2022-09-24T00:46:02;7.70;;;6.90;;
1613;SDS011;800;48.824;9.346;2022-09-24T00:48:36;7.53;;;6.83;;
1613;SDS011;800;48.824;9.346;2022-09-24T00:51:05;8.87;;;7.73;;
1613;SDS011;800;48.824;9.346;2022-09-24T00:53:31;7.77;;;7.03;;
1613;SDS011;800;48.824;9.346;2022-09-24T00:55:57;8.03;;;7.30;;
1613;SDS011;800;48.824;9.346;2022-09-24T00:58:25;7.60;;;6.67;;
1613;SDS011;800;48.824;9.346;2022-09-24T01:00:53;7.70;;;6.97;;
1613;SDS011;800;48.824;9.346;2022-09-24T01:03:29;8.37;;;7.50;;
1613;SDS011;800;48.824;9.346;2022-09-24T01:05:57;8.20;;;7.37;;
1613;SDS011;800;48.824;9.346;2022-09-24T01:08:23;8.77;;;8.07;;
1613;SDS011;800;48.824;9.346;2022-09-24T01:19:42;8.53;;;7.73;;
1613;SDS011;800;48.824;9.346;2022-09-24T01:21:55;12.27;;;9.63;;
1613;SDS011;800;48.824;9.346;2022-09-24T01:27:44;8.23;;;7.50;;
1613;SDS011;800;48.824;9.346;2022-09-24T01:30:06;7.93;;;7.20;;
1613;SDS011;800;48.824;9.346;2022-09-24T01:35:06;8.70;;;7.83;;
1613;SDS011;800;48.824;9.346;2022-09-24T01:37:44;9.10;;;8.03;;
1613;SDS011;800;48.824;9.346;2022-09-24T01:40:13;9.17;;;7.70;;
1613;SDS011;800;48.824;9.346;2022-09-24T01:42:41;9.07;;;8.17;;
1613;SDS011;800;48.824;9.346;2022-09-24T01:45:08;8.33;;;7.53;;
1613;SDS011;800;48.824;9.346;2022-09-24T01:47:36;11.50;;;8.30;;
1613;SDS011;800;48.824;9.346;2022-09-24T01:50:06;8.20;;;7.40;;
1613;SDS011;800;48.824;9.346;2022-09-24T01:52:40;8.77;;;7.83;;
1613;SDS011;800;48.824;9.346;2022-09-24T01:55:20;8.73;;;7.70;;
1613;SDS011;800;48.824;9.346;2022-09-24T01:57:55;8.90;;;6.87;;
1613;SDS011;800;48.824;9.346;2022-09-24T02:00:30;7.67;;;7.07;;
1613;SDS011;800;48.824;9.346;2022-09-24T02:03:02;9.30;;;7.20;;
1613;SDS011;800;48.824;9.346;2022-09-24T02:08:08;7.60;;;6.90;;
1613;SDS011;800;48.824;9.346;2022-09-24T02:10:43;10.00;;;7.50;;
1613;SDS011;800;48.824;9.346;2022-09-24T02:13:15;7.43;;;6.83;;
1613;SDS011;800;48.824;9.346;2022-09-24T02:15:45;8.60;;;7.80;;
1613;SDS011;800;48.824;9.346;2022-09-24T02:18:15;8.97;;;8.07;;
1613;SDS011;800;48.824;9.346;2022-09-24T02:20:43;9.03;;;8.20;;
1613;SDS011;800;48.824;9.346;2022-09-24T02:23:10;7.83;;;7.03;;
1613;SDS011;800;48.824;9.346;2022-09-24T02:25:43;9.70;;;7.27;;
1613;SDS011;800;48.824;9.346;2022-09-24T02:28:17;10.37;;;7.30;;
1613;SDS011;800;48.824;9.346;2022-09-24T02:30:45;7.70;;;7.00;;
1613;SDS011;800;48.824;9.346;2022-09-24T02:33:15;8.37;;;7.57;;
1613;SDS011;800;48.824;9.346;2022-09-24T02:36:00;8.07;;;7.37;;
1613;SDS011;800;48.824;9.346;2022-09-24T02:38:27;8.30;;;7.60;;
1613;SDS011;800;48.824;9.346;2022-09-24T02:40:52;8.40;;;7.70;;
1613;SDS011;800;48.824;9.346;2022-09-24T02:43:19;8.60;;;7.80;;
1613;SDS011;800;48.824;9.346;2022-09-24T02:45:44;8.17;;;7.47;;
1613;SDS011;800;48.824;9.346;2022-09-24T02:48:10;8.93;;;7.37;;
1613;SDS011;800;48.824;9.346;2022-09-24T02:50:35;8.57;;;7.87;;
1613;SDS011;800;48.824;9.346;2022-09-24T02:53:01;8.13;;;7.30;;
1613;SDS011;800;48.824;9.346;2022-09-24T02:55:27;7.40;;;6.80;;
1613;SDS011;800;48.824;9.346;2022-09-24T02:57:52;7.53;;;6.90;;
1613;SDS011;800;48.824;9.346;2022-09-24T03:00:18;11.67;;;6.87;;
1613;SDS011;800;48.824;9.346;2022-09-24T03:02:45;8.20;;;7.30;;
1613;SDS011;800;48.824;9.346;2022-09-24T03:05:13;9.07;;;8.20;;
1613;SDS011;800;48.824;9.346;2022-09-24T03:07:42;7.97;;;7.27;;
1613;SDS011;800;48.824;9.346;2022-09-24T03:10:08;9.10;;;8.20;;
1613;SDS011;800;48.824;9.346;2022-09-24T03:12:34;8.47;;;7.13;;
1613;SDS011;800;48.824;9.346;2022-09-24T03:15:00;8.13;;;7.53;;
1613;SDS011;800;48.824;9.346;2022-09-24T03:17:26;9.43;;;6.90;;
1613;SDS011;800;48.824;9.346;2022-09-24T03:19:52;8.10;;;7.03;;
1613;SDS011;800;48.824;9.346;2022-09-24T03:22:18;8.63;;;7.87;;
1613;SDS011;800;48.824;9.346;2022-09-24T03:24:44;8.43;;;7.33;;
1613;SDS011;800;48.824;9.346;2022-09-24T03:27:10;7.63;;;7.00;;
1613;SDS011;800;48.824;9.346;2022-09-24T03:29:36;9.50;;;7.60;;
1613;SDS011;800;48.824;9.346;2022-09-24T03:32:20;8.00;;;7.10;;
1613;SDS011;800;48.824;9.346;2022-09-24T03:34:46;8.13;;;7.43;;
1613;SDS011;800;48.824;9.346;2022-09-24T03:37:11;10.10;;;7.60;;
1613;SDS011;800;48.824;9.346;2022-09-24T03:39:37;8.23;;;7.37;;
1613;SDS011;800;48.824;9.346;2022-09-24T03:42:03;8.53;;;7.63;;
1613;SDS011;800;48.824;9.346;2022-09-24T03:44:28;8.97;;;8.07;;
1613;SDS011;800;48.824;9.346;2022-09-24T03:46:54;10.13;;;7.80;;
1613;SDS011;800;48.824;9.346;2022-09-24T03:49:20;7.27;;;6.67;;
1613;SDS011;800;48.824;9.346;2022-09-24T03:51:47;8.93;;;7.53;;
1613;SDS011;800;48.824;9.346;2022-09-24T03:54:14;8.17;;;7.47;;
1613;SDS011;800;48.824;9.346;2022-09-24T03:56:40;9.60;;;8.77;;
1613;SDS011;800;48.824;9.346;2022-09-24T03:59:07;9.37;;;8.47;;
1613;SDS011;800;48.824;9.346;2022-09-24T04:01:36;8.20;;;7.50;;
1613;SDS011;800;48.824;9.346;2022-09-24T04:04:02;8.90;;;8.03;;
1613;SDS011;800;48.824;9.346;2022-09-24T04:06:29;7.87;;;7.13;;
1613;SDS011;800;48.824;9.346;2022-09-24T04:08:55;8.00;;;7.20;;
1613;SDS011;800;48.824;9.346;2022-09-24T04:11:22;9.17;;;8.30;;
1613;SDS011;800;48.824;9.346;2022-09-24T04:13:48;8.50;;;7.77;;
1613;SDS011;800;48.824;9.346;2022-09-24T04:16:14;9.37;;;7.70;;
1613;SDS011;800;48.824;9.346;2022-09-24T04:18:39;9.17;;;8.27;;
1613;SDS011;800;48.824;9.346;2022-09-24T04:21:05;8.80;;;7.30;;
1613;SDS011;800;48.824;9.346;2022-09-24T04:23:31;7.60;;;6.90;;
1613;SDS011;800;48.824;9.346;2022-09-24T04:25:57;7.77;;;7.03;;
1613;SDS011;800;48.824;9.346;2022-09-24T04:28:26;8.90;;;6.93;;
1613;SDS011;800;48.824;9.346;2022-09-24T04:30:52;9.10;;;7.50;;
1613;SDS011;800;48.824;9.346;2022-09-24T04:33:18;8.17;;;7.53;;
1613;SDS011;800;48.824;9.346;2022-09-24T04:35:44;8.80;;;8.00;;
1613;SDS011;800;48.824;9.346;2022-09-24T04:38:10;9.30;;;7.97;;
1613;SDS011;800;48.824;9.346;2022-09-24T04:40:35;9.07;;;8.20;;
1613;SDS011;800;48.824;9.346;2022-09-24T04:43:01;8.70;;;7.90;;
1613;SDS011;800;48.824;9.346;2022-09-24T04:45:28;8.20;;;7.40;;
1613;SDS011;800;48.824;9.346;2022-09-24T04:47:53;9.80;;;8.80;;
1613;SDS011;800;48.824;9.346;2022-09-24T04:50:23;10.43;;;8.57;;
1613;SDS011;800;48.824;9.346;2022-09-24T04:52:49;9.10;;;7.43;;
1613;SDS011;800;48.824;9.346;2022-09-24T04:55:15;10.20;;;8.30;;
1613;SDS011;800;48.824;9.346;2022-09-24T04:57:41;8.37;;;7.53;;
1613;SDS011;800;48.824;9.346;2022-09-24T05:00:11;9.47;;;8.63;;
1613;SDS011;800;48.824;9.346;2022-09-24T05:02:39;12.20;;;8.67;;
1613;SDS011;800;48.824;9.346;2022-09-24T05:05:05;8.57;;;7.57;;
1613;SDS011;800;48.824;9.346;2022-09-24T05:07:31;9.20;;;8.20;;
1613;SDS011;800;48.824;9.346;2022-09-24T05:09:56;10.37;;;7.33;;
1613;SDS011;800;48.824;9.346;2022-09-24T05:12:22;8.70;;;7.80;;
1613;SDS011;800;48.824;9.346;2022-09-24T05:14:48;21.10;;;8.07;;
1613;SDS011;800;48.824;9.346;2022-09-24T05:17:14;22.47;;;8.90;;
1613;SDS011;800;48.824;9.346;2022-09-24T05:19:39;12.50;;;7.93;;
1613;SDS011;800;48.824;9.346;2022-09-24T05:22:05;11.70;;;8.33;;
1613;SDS011;800;48.824;9.346;2022-09-24T05:24:31;8.97;;;8.07;;
1613;SDS011;800;48.824;9.346;2022-09-24T05:26:56;9.93;;;7.97;;
1613;SDS011;800;48.824;9.346;2022-09-24T05:29:40;8.73;;;7.93;;
1613;SDS011;800;48.824;9.346;2022-09-24T05:32:11;9.87;;;7.50;;
1613;SDS011;800;48.824;9.346;2022-09-24T05:34:39;8.33;;;7.63;;
1613;SDS011;800;48.824;9.346;2022-09-24T05:37:07;8.43;;;7.63;;
1613;SDS011;800;48.824;9.346;2022-09-24T05:39:34;10.90;;;7.90;;
1613;SDS011;800;48.824;9.346;2022-09-24T05:42:00;8.87;;;7.97;;
1613;SDS011;800;48.824;9.346;2022-09-24T05:44:29;8.73;;;7.83;;
1613;SDS011;800;48.824;9.346;2022-09-24T05:46:55;7.77;;;7.07;;
1613;SDS011;800;48.824;9.346;2022-09-24T05:49:21;28.73;;;10.70;;
1613;SDS011;800;48.824;9.346;2022-09-24T05:51:50;16.57;;;13.27;;
1613;SDS011;800;48.824;9.346;2022-09-24T05:54:16;18.03;;;14.97;;
1613;SDS011;800;48.824;9.346;2022-09-24T05:56:43;15.27;;;13.33;;
1613;SDS011;800;48.824;9.346;2022-09-24T05:59:09;10.37;;;8.37;;
1613;SDS011;800;48.824;9.346;2022-09-24T06:01:35;9.50;;;8.60;;
1613;SDS011;800;48.824;9.346;2022-09-24T06:04:01;11.27;;;7.83;;
1613;SDS011;800;48.824;9.346;2022-09-24T06:06:26;8.50;;;7.67;;
1613;SDS011;800;48.824;9.346;2022-09-24T06:08:53;8.97;;;7.47;;
1613;SDS011;800;48.824;9.346;2022-09-24T06:11:19;9.33;;;8.37;;
1613;SDS011;800;48.824;9.346;2022-09-24T06:13:46;9.23;;;7.00;;
1613;SDS011;800;48.824;9.346;2022-09-24T06:16:12;8.57;;;7.60;;
1613;SDS011;800;48.824;9.346;2022-09-24T06:18:38;7.83;;;7.13;;
1613;SDS011;800;48.824;9.346;2022-09-24T06:21:06;8.57;;;7.83;;
1613;SDS011;800;48.824;9.346;2022-09-24T06:23:34;9.70;;;8.90;;
1613;SDS011;800;48.824;9.346;2022-09-24T06:26:00;8.70;;;7.80;;
1613;SDS011;800;48.824;9.346;2022-09-24T06:28:26;12.60;;;8.30;;
1613;SDS011;800;48.824;9.346;2022-09-24T06:30:52;8.87;;;8.17;;
1613;SDS011;800;48.824;9.346;2022-09-24T06:33:18;11.90;;;9.70;;
1613;SDS011;800;48.824;9.346;2022-09-24T06:35:44;9.27;;;8.30;;
1613;SDS011;800;48.824;9.346;2022-09-24T06:38:11;9.70;;;8.90;;
1613;SDS011;800;48.824;9.346;2022-09-24T06:40:39;9.10;;;8.20;;
1613;SDS011;800;48.824;9.346;2022-09-24T06:43:05;9.33;;;8.20;;
1613;SDS011;800;48.824;9.346;2022-09-24T06:45:31;9.97;;;8.40;;
1613;SDS011;800;48.824;9.346;2022-09-24T06:47:58;12.47;;;9.30;;
1613;SDS011;800;48.824;9.346;2022-09-24T06:50:25;12.00;;;8.63;;
1613;SDS011;800;48.824;9.346;2022-09-24T06:52:52;9.43;;;8.60;;
1613;SDS011;800;48.824;9.346;2022-09-24T06:55:19;10.60;;;8.57;;
1613;SDS011;800;48.824;9.346;2022-09-24T06:57:45;10.00;;;9.00;;
1613;SDS011;800;48.824;9.346;2022-09-24T07:00:10;11.70;;;8.33;;
1613;SDS011;800;48.824;9.346;2022-09-24T07:02:38;8.60;;;7.70;;
1613;SDS011;800;48.824;9.346;2022-09-24T07:05:04;7.93;;;7.23;;
1613;SDS011;800;48.824;9.346;2022-09-24T07:07:30;10.17;;;7.93;;
1613;SDS011;800;48.824;9.346;2022-09-24T07:10:05;9.00;;;8.20;;
1613;SDS011;800;48.824;9.346;2022-09-24T07:12:32;8.37;;;7.57;;
1613;SDS011;800;48.824;9.346;2022-09-24T07:14:59;9.90;;;8.20;;
1613;SDS011;800;48.824;9.346;2022-09-24T07:17:25;9.60;;;8.30;;
1613;SDS011;800;48.824;9.346;2022-09-24T07:19:52;9.23;;;8.13;;
1613;SDS011;800;48.824;9.346;2022-09-24T07:22:17;8.80;;;8.00;;
1613;SDS011;800;48.824;9.346;2022-09-24T07:24:43;11.33;;;8.47;;
1613;SDS011;800;48.824;9.346;2022-09-24T07:27:09;11.50;;;8.40;;
1613;SDS011;800;48.824;9.346;2022-09-24T07:29:36;9.57;;;8.67;;
1613;SDS011;800;48.824;9.346;2022-09-24T07:32:02;9.27;;;8.30;;
1613;SDS011;800;48.824;9.346;2022-09-24T07:34:28;8.70;;;8.00;;
1613;SDS011;800;48.824;9.346;2022-09-24T07:36:54;9.13;;;8.33;;
1613;SDS011;800;48.824;9.346;2022-09-24T07:39:21;10.90;;;9.10;;
1613;SDS011;800;48.824;9.346;2022-09-24T07:41:47;10.50;;;8.50;;
1613;SDS011;800;48.824;9.346;2022-09-24T07:44:13;7.67;;;6.97;;
1613;SDS011;800;48.824;9.346;2022-09-24T07:46:39;9.43;;;8.53;;
1613;SDS011;800;48.824;9.346;2022-09-24T07:49:04;9.73;;;7.73;;
1613;SDS011;800;48.824;9.346;2022-09-24T07:51:30;9.10;;;8.00;;
1613;SDS011;800;48.824;9.346;2022-09-24T07:53:56;7.90;;;7.13;;
1613;SDS011;800;48.824;9.346;2022-09-24T07:56:22;9.20;;;8.33;;
1613;SDS011;800;48.824;9.346;2022-09-24T07:58:49;10.77;;;8.30;;
1613;SDS011;800;48.824;9.346;2022-09-24T08:01:16;8.47;;;7.63;;
1613;SDS011;800;48.824;9.346;2022-09-24T08:03:45;11.90;;;10.80;;
1613;SDS011;800;48.824;9.346;2022-09-24T08:06:11;10.97;;;9.80;;
1613;SDS011;800;48.824;9.346;2022-09-24T08:08:38;9.10;;;8.30;;
1613;SDS011;800;48.824;9.346;2022-09-24T08:11:04;9.73;;;8.73;;
1613;SDS011;800;48.824;9.346;2022-09-24T08:13:30;8.90;;;8.10;;
1613;SDS011;800;48.824;9.346;2022-09-24T08:15:57;8.63;;;7.80;;
1613;SDS011;800;48.824;9.346;2022-09-24T08:18:23;9.83;;;8.93;;
1613;SDS011;800;48.824;9.346;2022-09-24T08:20:49;11.23;;;8.17;;
1613;SDS011;800;48.824;9.346;2022-09-24T08:23:15;9.47;;;8.30;;
1613;SDS011;800;48.824;9.346;2022-09-24T08:25:40;8.40;;;7.60;;
1613;SDS011;800;48.824;9.346;2022-09-24T08:28:06;10.00;;;9.00;;
1613;SDS011;800;48.824;9.346;2022-09-24T08:30:33;10.83;;;8.47;;
1613;SDS011;800;48.824;9.346;2022-09-24T08:32:59;8.93;;;7.90;;
1613;SDS011;800;48.824;9.346;2022-09-24T08:35:25;9.30;;;8.23;;
1613;SDS011;800;48.824;9.346;2022-09-24T08:37:54;9.50;;;8.60;;
1613;SDS011;800;48.824;9.346;2022-09-24T08:40:21;8.50;;;7.70;;
1613;SDS011;800;48.824;9.346;2022-09-24T08:42:54;9.97;;;9.07;;
1613;SDS011;800;48.824;9.346;2022-09-24T08:45:30;9.07;;;8.23;;
1613;SDS011;800;48.824;9.346;2022-09-24T08:48:25;11.47;;;8.50;;
1613;SDS011;800;48.824;9.346;2022-09-24T08:50:57;16.40;;;8.77;;
1613;SDS011;800;48.824;9.346;2022-09-24T08:53:40;10.80;;;8.67;;
1613;SDS011;800;48.824;9.346;2022-09-24T08:56:28;12.83;;;8.10;;
1613;SDS011;800;48.824;9.346;2022-09-24T09:01:44;9.47;;;8.67;;
1613;SDS011;800;48.824;9.346;2022-09-24T09:04:19;12.27;;;8.13;;
1613;SDS011;800;48.824;9.346;2022-09-24T09:09:53;7.70;;;6.90;;
1613;SDS011;800;48.824;9.346;2022-09-24T09:12:36;8.43;;;7.60;;
1613;SDS011;800;48.824;9.346;2022-09-24T09:17:43;9.43;;;8.10;;
1613;SDS011;800;48.824;9.346;2022-09-24T09:25:53;7.40;;;6.80;;
1613;SDS011;800;48.824;9.346;2022-09-24T09:28:20;7.10;;;6.40;;
1613;SDS011;800;48.824;9.346;2022-09-24T09:44:10;7.37;;;6.20;;
1613;SDS011;800;48.824;9.346;2022-09-24T09:46:41;7.73;;;6.93;;
1613;SDS011;800;48.824;9.346;2022-09-24T09:49:15;8.17;;;7.47;;
1613;SDS011;800;48.824;9.346;2022-09-24T09:51:42;7.60;;;6.90;;
1613;SDS011;800;48.824;9.346;2022-09-24T09:54:12;10.30;;;8.60;;
1613;SDS011;800;48.824;9.346;2022-09-24T09:56:41;9.57;;;7.27;;
1613;SDS011;800;48.824;9.346;2022-09-24T10:01:35;7.83;;;6.80;;
1613;SDS011;800;48.824;9.346;2022-09-24T10:04:04;6.53;;;5.93;;
1613;SDS011;800;48.824;9.346;2022-09-24T10:06:32;6.83;;;6.20;;
1613;SDS011;800;48.824;9.346;2022-09-24T10:09:32;7.73;;;6.93;;
1613;SDS011;800;48.824;9.346;2022-09-24T10:11:50;6.60;;;6.00;;
1613;SDS011;800;48.824;9.346;2022-09-24T10:14:16;8.77;;;6.10;;
1613;SDS011;800;48.824;9.346;2022-09-24T10:16:44;6.67;;;6.07;;
1613;SDS011;800;48.824;9.346;2022-09-24T10:19:20;6.50;;;5.90;;
1613;SDS011;800;48.824;9.346;2022-09-24T10:21:48;7.07;;;6.47;;
1613;SDS011;800;48.824;9.346;2022-09-24T10:24:23;7.23;;;6.33;;
1613;SDS011;800;48.824;9.346;2022-09-24T10:26:50;6.33;;;5.73;;
1613;SDS011;800;48.824;9.346;2022-09-24T10:29:21;5.30;;;4.80;;
1613;SDS011;800;48.824;9.346;2022-09-24T10:32:21;5.80;;;4.40;;
1613;SDS011;800;48.824;9.346;2022-09-24T10:34:59;3.67;;;3.37;;
1613;SDS011;800;48.824;9.346;2022-09-24T10:37:26;4.20;;;3.90;;
1613;SDS011;800;48.824;9.346;2022-09-24T10:39:56;4.20;;;3.80;;
1613;SDS011;800;48.824;9.346;2022-09-24T10:42:23;4.83;;;4.43;;
1613;SDS011;800;48.824;9.346;2022-09-24T10:44:50;8.27;;;7.20;;
1613;SDS011;800;48.824;9.346;2022-09-24T10:47:19;6.30;;;4.93;;
1613;SDS011;800;48.824;9.346;2022-09-24T11:01:17;3.13;;;2.93;;
1613;SDS011;800;48.824;9.346;2022-09-24T11:24:03;3.93;;;3.63;;
1613;SDS011;800;48.824;9.346;2022-09-24T11:27:01;3.30;;;3.07;;
1613;SDS011;800;48.824;9.346;2022-09-24T11:29:54;3.70;;;3.10;;
1613;SDS011;800;48.824;9.346;2022-09-24T11:32:35;3.77;;;3.47;;
1613;SDS011;800;48.824;9.346;2022-09-24T11:35:33;3.87;;;3.57;;
1613;SDS011;800;48.824;9.346;2022-09-24T11:52:42;4.47;;;3.10;;
1613;SDS011;800;48.824;9.346;2022-09-24T11:55:29;3.27;;;2.97;;
1613;SDS011;800;48.824;9.346;2022-09-24T12:00:34;3.30;;;3.00;;
1613;SDS011;800;48.824;9.346;2022-09-24T12:03:11;3.10;;;2.90;;
1613;SDS011;800;48.824;9.346;2022-09-24T12:05:50;5.00;;;2.80;;
1613;SDS011;800;48.824;9.346;2022-09-24T12:11:28;2.60;;;2.40;;
1613;SDS011;800;48.824;9.346;2022-09-24T12:16:57;2.40;;;2.20;;
1613;SDS011;800;48.824;9.346;2022-09-24T12:21:59;9.03;;;5.03;;
1613;SDS011;800;48.824;9.346;2022-09-24T12:24:35;3.10;;;2.80;;
1613;SDS011;800;48.824;9.346;2022-09-24T12:27:06;2.90;;;2.60;;
1613;SDS011;800;48.824;9.346;2022-09-24T12:41:15;2.80;;;2.60;;
1613;SDS011;800;48.824;9.346;2022-09-24T12:44:05;2.80;;;2.60;;
1613;SDS011;800;48.824;9.346;2022-09-24T12:46:52;3.37;;;3.07;;
1613;SDS011;800;48.824;9.346;2022-09-24T12:51:50;3.00;;;2.70;;
1613;SDS011;800;48.824;9.346;2022-09-24T12:54:23;2.77;;;2.57;;
1613;SDS011;800;48.824;9.346;2022-09-24T12:59:45;3.13;;;2.93;;
1613;SDS011;800;48.824;9.346;2022-09-24T13:02:19;3.43;;;2.90;;
1613;SDS011;800;48.824;9.346;2022-09-24T13:07:38;3.30;;;3.10;;
1613;SDS011;800;48.824;9.346;2022-09-24T13:12:46;4.07;;;3.77;;
1613;SDS011;800;48.824;9.346;2022-09-24T13:15:28;3.33;;;3.13;;
1613;SDS011;800;48.824;9.346;2022-09-24T13:18:00;3.23;;;3.03;;
1613;SDS011;800;48.824;9.346;2022-09-24T13:20:30;3.83;;;3.43;;
1613;SDS011;800;48.824;9.346;2022-09-24T13:22:58;3.93;;;3.63;;
1613;SDS011;800;48.824;9.346;2022-09-24T13:25:36;4.30;;;3.30;;
1613;SDS011;800;48.824;9.346;2022-09-24T13:28:03;3.67;;;3.40;;
1613;SDS011;800;48.824;9.346;2022-09-24T13:30:58;4.07;;;3.77;;
1613;SDS011;800;48.824;9.346;2022-09-24T13:33:35;4.03;;;3.63;;
1613;SDS011;800;48.824;9.346;2022-09-24T13:38:57;4.07;;;3.50;;
1613;SDS011;800;48.824;9.346;2022-09-24T13:41:41;4.03;;;3.67;;
1613;SDS011;800;48.824;9.346;2022-09-24T13:44:16;4.03;;;3.67;;
1613;SDS011;800;48.824;9.346;2022-09-24T13:46:52;5.13;;;4.63;;
1613;SDS011;800;48.824;9.346;2022-09-24T13:49:24;4.40;;;4.00;;
1613;SDS011;800;48.824;9.346;2022-09-24T13:51:56;4.10;;;3.80;;
1613;SDS011;800;48.824;9.346;2022-09-24T13:54:34;4.10;;;3.80;;
1613;SDS011;800;48.824;9.346;2022-09-24T13:57:11;8.33;;;4.60;;
1613;SDS011;800;48.824;9.346;2022-09-24T13:59:44;4.03;;;3.67;;
1613;SDS011;800;48.824;9.346;2022-09-24T14:02:25;5.83;;;5.23;;
1613;SDS011;800;48.824;9.346;2022-09-24T14:04:55;4.83;;;4.43;;
1613;SDS011;800;48.824;9.346;2022-09-24T14:07:23;5.10;;;4.70;;
1613;SDS011;800;48.824;9.346;2022-09-24T14:10:00;4.93;;;4.50;;
1613;SDS011;800;48.824;9.346;2022-09-24T14:12:31;4.50;;;4.17;;
1613;SDS011;800;48.824;9.346;2022-09-24T14:14:57;3.90;;;3.60;;
1613;SDS011;800;48.824;9.346;2022-09-24T14:17:24;3.70;;;3.40;;
1613;SDS011;800;48.824;9.346;2022-09-24T14:19:56;3.73;;;3.40;;
1613;SDS011;800;48.824;9.346;2022-09-24T14:24:55;4.60;;;4.30;;
1613;SDS011;800;48.824;9.346;2022-09-24T14:27:26;6.23;;;5.00;;
1613;SDS011;800;48.824;9.346;2022-09-24T14:29:55;5.23;;;4.53;;
1613;SDS011;800;48.824;9.346;2022-09-24T14:32:30;5.23;;;4.73;;
1613;SDS011;800;48.824;9.346;2022-09-24T14:35:12;5.27;;;4.77;;
1613;SDS011;800;48.824;9.346;2022-09-24T14:37:48;4.33;;;3.93;;
1613;SDS011;800;48.824;9.346;2022-09-24T14:40:17;4.80;;;4.40;;
1613;SDS011;800;48.824;9.346;2022-09-24T14:42:45;7.60;;;6.00;;
1613;SDS011;800;48.824;9.346;2022-09-24T14:45:29;5.40;;;4.90;;
1613;SDS011;800;48.824;9.346;2022-09-24T14:48:02;4.77;;;4.37;;
1613;SDS011;800;48.824;9.346;2022-09-24T14:52:59;5.53;;;5.10;;
1613;SDS011;800;48.824;9.346;2022-09-24T14:55:38;5.23;;;4.73;;
1613;SDS011;800;48.824;9.346;2022-09-24T14:58:20;5.63;;;4.80;;
1613;SDS011;800;48.824;9.346;2022-09-24T15:00:47;5.07;;;4.67;;
1613;SDS011;800;48.824;9.346;2022-09-24T15:03:15;5.60;;;4.40;;
1613;SDS011;800;48.824;9.346;2022-09-24T15:05:45;4.97;;;4.40;;
1613;SDS011;800;48.824;9.346;2022-09-24T15:08:26;4.70;;;4.30;;
1613;SDS011;800;48.824;9.346;2022-09-24T15:13:24;5.30;;;4.90;;
1613;SDS011;800;48.824;9.346;2022-09-24T15:19:45;4.30;;;3.90;;
1613;SDS011;800;48.824;9.346;2022-09-24T15:21:41;5.00;;;4.60;;
1613;SDS011;800;48.824;9.346;2022-09-24T15:24:07;5.73;;;4.47;;
1613;SDS011;800;48.824;9.346;2022-09-24T15:26:34;5.33;;;4.80;;
1613;SDS011;800;48.824;9.346;2022-09-24T15:29:01;7.17;;;5.37;;
1613;SDS011;800;48.824;9.346;2022-09-24T15:31:27;5.70;;;5.10;;
1613;SDS011;800;48.824;9.346;2022-09-24T15:33:55;5.87;;;5.27;;
1613;SDS011;800;48.824;9.346;2022-09-24T15:36:21;5.13;;;4.73;;
1613;SDS011;800;48.824;9.346;2022-09-24T15:38:47;5.50;;;5.00;;
1613;SDS011;800;48.824;9.346;2022-09-24T15:41:15;5.37;;;4.90;;
1613;SDS011;800;48.824;9.346;2022-09-24T15:43:41;9.70;;;8.70;;
1613;SDS011;800;48.824;9.346;2022-09-24T15:46:06;9.37;;;8.40;;
1613;SDS011;800;48.824;9.346;2022-09-24T15:48:32;12.17;;;10.87;;
1613;SDS011;800;48.824;9.346;2022-09-24T15:50:57;9.33;;;8.03;;
1613;SDS011;800;48.824;9.346;2022-09-24T15:53:26;9.50;;;8.70;;
1613;SDS011;800;48.824;9.346;2022-09-24T15:55:53;12.17;;;11.00;;
1613;SDS011;800;48.824;9.346;2022-09-24T15:58:20;10.10;;;9.20;;
1613;SDS011;800;48.824;9.346;2022-09-24T16:00:46;8.90;;;8.00;;
1613;SDS011;800;48.824;9.346;2022-09-24T16:03:33;7.13;;;6.50;;
1613;SDS011;800;48.824;9.346;2022-09-24T16:05:58;9.20;;;7.97;;
1613;SDS011;800;48.824;9.346;2022-09-24T16:08:25;9.33;;;8.53;;
1613;SDS011;800;48.824;9.346;2022-09-24T16:10:51;6.80;;;6.10;;
1613;SDS011;800;48.824;9.346;2022-09-24T16:13:17;5.47;;;5.03;;
1613;SDS011;800;48.824;9.346;2022-09-24T16:15:46;5.80;;;5.23;;
1613;SDS011;800;48.824;9.346;2022-09-24T16:18:13;5.67;;;5.17;;
1613;SDS011;800;48.824;9.346;2022-09-24T16:20:39;9.50;;;5.40;;
1613;SDS011;800;48.824;9.346;2022-09-24T16:23:05;5.80;;;5.30;;
1613;SDS011;800;48.824;9.346;2022-09-24T16:25:36;6.10;;;5.60;;
1613;SDS011;800;48.824;9.346;2022-09-24T16:28:01;5.10;;;4.70;;
1613;SDS011;800;48.824;9.346;2022-09-24T16:30:27;5.80;;;5.30;;
1613;SDS011;800;48.824;9.346;2022-09-24T16:32:52;5.43;;;5.03;;
1613;SDS011;800;48.824;9.346;2022-09-24T16:35:18;6.60;;;6.00;;
1613;SDS011;800;48.824;9.346;2022-09-24T16:37:43;7.00;;;6.40;;
1613;SDS011;800;48.824;9.346;2022-09-24T16:40:09;9.73;;;6.43;;
1613;SDS011;800;48.824;9.346;2022-09-24T16:42:35;9.90;;;8.90;;
1613;SDS011;800;48.824;9.346;2022-09-24T16:45:01;10.90;;;9.80;;
1613;SDS011;800;48.824;9.346;2022-09-24T16:47:27;8.93;;;8.03;;
1613;SDS011;800;48.824;9.346;2022-09-24T16:49:53;14.10;;;12.27;;
1613;SDS011;800;48.824;9.346;2022-09-24T16:52:18;9.17;;;8.27;;
1613;SDS011;800;48.824;9.346;2022-09-24T16:54:44;9.03;;;7.70;;
1613;SDS011;800;48.824;9.346;2022-09-24T16:57:09;11.07;;;9.90;;
1613;SDS011;800;48.824;9.346;2022-09-24T16:59:35;9.67;;;8.30;;
1613;SDS011;800;48.824;9.346;2022-09-24T17:02:00;8.90;;;8.00;;
1613;SDS011;800;48.824;9.346;2022-09-24T17:04:27;9.70;;;8.70;;
1613;SDS011;800;48.824;9.346;2022-09-24T17:06:54;10.40;;;8.70;;
1613;SDS011;800;48.824;9.346;2022-09-24T17:09:20;8.63;;;7.63;;
1613;SDS011;800;48.824;9.346;2022-09-24T17:12:05;9.40;;;7.80;;
1613;SDS011;800;48.824;9.346;2022-09-24T17:14:30;7.20;;;6.60;;
1613;SDS011;800;48.824;9.346;2022-09-24T17:16:56;7.90;;;7.10;;
1613;SDS011;800;48.824;9.346;2022-09-24T17:19:21;7.57;;;6.90;;
1613;SDS011;800;48.824;9.346;2022-09-24T17:21:47;7.30;;;6.47;;
1613;SDS011;800;48.824;9.346;2022-09-24T17:24:16;6.83;;;6.00;;
1613;SDS011;800;48.824;9.346;2022-09-24T17:26:42;6.73;;;6.10;;
1613;SDS011;800;48.824;9.346;2022-09-24T17:29:09;6.53;;;6.03;;
1613;SDS011;800;48.824;9.346;2022-09-24T17:31:35;6.40;;;5.90;;
1613;SDS011;800;48.824;9.346;2022-09-24T17:34:02;6.93;;;6.17;;
1613;SDS011;800;48.824;9.346;2022-09-24T17:36:30;7.43;;;6.80;;
1613;SDS011;800;48.824;9.346;2022-09-24T17:38:57;7.60;;;7.00;;
1613;SDS011;800;48.824;9.346;2022-09-24T17:41:24;7.73;;;7.03;;
1613;SDS011;800;48.824;9.346;2022-09-24T17:43:50;8.10;;;7.30;;
1613;SDS011;800;48.824;9.346;2022-09-24T17:46:17;11.07;;;8.10;;
1613;SDS011;800;48.824;9.346;2022-09-24T17:48:46;8.40;;;7.53;;
1613;SDS011;800;48.824;9.346;2022-09-24T17:51:19;7.10;;;6.50;;
1613;SDS011;800;48.824;9.346;2022-09-24T17:53:53;7.43;;;6.73;;
1613;SDS011;800;48.824;9.346;2022-09-24T17:56:23;7.97;;;7.20;;
1613;SDS011;800;48.824;9.346;2022-09-24T17:58:50;7.83;;;7.03;;
1613;SDS011;800;48.824;9.346;2022-09-24T18:01:19;8.30;;;7.43;;
1613;SDS011;800;48.824;9.346;2022-09-24T18:03:46;9.63;;;8.63;;
1613;SDS011;800;48.824;9.346;2022-09-24T18:06:15;9.70;;;8.70;;